Time;durP1;ratioP1;P1;durP2;ratioP2;P2;SDS_P1;SDS_P2;PMS_P1;PMS_P2;Temp;Humidity;BMP_temperature;BMP_pressure;BME280_temperature;BME280_humidity;BME280_pressure;Samples;Min_cycle;Max_cycle;Signal;HPM_P1;HPM_P2
2022/04/11 00:00:46;;;;;;;143.80;137.87;;;2.20;93.00;;;;;;5001116;28;20461;-81
2022/04/11 00:03:13;;;;;;;170.00;162.90;;;2.20;93.20;;;;;;5000795;28;20449;-82
2022/04/11 00:05:39;;;;;;;155.87;149.57;;;2.20;93.80;;;;;;5000599;28;20458;-81
2022/04/11 00:08:08;;;;;;;165.37;158.43;;;2.20;93.60;;;;;;4999879;28;20473;-81
2022/04/11 00:10:35;;;;;;;165.60;158.57;;;2.20;94.10;;;;;;5000762;28;20458;-82
2022/04/11 00:13:02;;;;;;;166.23;159.57;;;2.20;93.60;;;;;;4999741;28;20469;-81
2022/04/11 00:15:29;;;;;;;194.37;186.60;;;2.20;94.50;;;;;;5000403;28;20458;-81
2022/04/11 00:17:56;;;;;;;189.60;182.00;;;2.20;94.80;;;;;;5000497;28;20470;-81
2022/04/11 00:20:23;;;;;;;159.77;153.07;;;2.20;95.00;;;;;;4999681;28;20446;-82
2022/04/11 00:22:49;;;;;;;135.70;130.00;;;2.10;95.00;;;;;;5000621;28;20536;-81
2022/04/11 00:25:17;;;;;;;126.27;120.10;;;2.20;95.00;;;;;;4999881;28;20458;-81
2022/04/11 00:27:44;;;;;;;131.30;125.63;;;2.20;94.40;;;;;;5000248;28;20482;-81
2022/04/11 00:30:12;;;;;;;154.00;146.90;;;2.30;94.50;;;;;;4996697;28;20454;-81
2022/04/11 00:32:40;;;;;;;128.10;122.53;;;2.30;93.90;;;;;;4999977;28;20454;-81
2022/04/11 00:35:08;;;;;;;94.47;89.87;;;2.20;93.90;;;;;;5000794;28;20462;-82
2022/04/11 00:37:37;;;;;;;71.60;67.80;;;2.30;92.70;;;;;;5000024;28;20478;-82
2022/04/11 00:40:04;;;;;;;59.77;56.10;;;2.50;92.00;;;;;;5000025;28;20482;-82
2022/04/11 00:42:33;;;;;;;46.17;43.37;;;2.50;91.50;;;;;;4998584;28;20538;-82
2022/04/11 00:45:00;;;;;;;44.90;41.80;;;2.50;91.20;;;;;;4999811;28;20462;-81
2022/04/11 00:47:27;;;;;;;49.13;45.90;;;2.50;91.10;;;;;;5000454;28;20478;-81
2022/04/11 00:49:55;;;;;;;43.67;40.53;;;2.50;91.30;;;;;;4999271;28;20462;-82
2022/04/11 00:52:22;;;;;;;49.30;45.90;;;2.50;91.20;;;;;;4999790;28;20454;-82
2022/04/11 00:54:49;;;;;;;55.57;52.13;;;2.50;91.90;;;;;;4998988;28;20461;-82
2022/04/11 00:57:16;;;;;;;67.07;63.37;;;2.50;92.10;;;;;;4999942;28;21143;-82
2022/04/11 00:59:44;;;;;;;59.63;56.40;;;2.40;92.50;;;;;;4999394;28;20450;-81
2022/04/11 01:02:11;;;;;;;52.80;49.37;;;2.60;92.10;;;;;;4999068;28;20462;-82
2022/04/11 01:04:41;;;;;;;45.43;42.40;;;2.70;91.90;;;;;;5000185;28;20457;-82
2022/04/11 01:07:08;;;;;;;49.37;46.37;;;2.80;91.40;;;;;;4998877;28;20470;-82
2022/04/11 01:09:35;;;;;;;43.27;40.30;;;2.90;91.30;;;;;;4998793;28;21198;-82
2022/04/11 01:12:02;;;;;;;44.57;41.63;;;3.00;90.80;;;;;;4999052;28;20465;-81
2022/04/11 01:14:29;;;;;;;47.57;44.67;;;3.20;90.90;;;;;;4999498;28;20461;-82
2022/04/11 01:16:59;;;;;;;53.67;50.47;;;3.20;91.40;;;;;;4999491;28;20474;-81
2022/04/11 01:19:27;;;;;;;55.80;52.83;;;3.10;91.60;;;;;;4998091;28;20832;-82
2022/04/11 01:21:55;;;;;;;54.77;51.47;;;3.10;91.80;;;;;;4999390;28;20446;-81
2022/04/11 01:24:23;;;;;;;49.37;46.57;;;3.20;91.80;;;;;;4999750;28;21140;-82
2022/04/11 01:26:50;;;;;;;33.53;31.33;;;3.20;92.00;;;;;;4999154;28;20478;-81
2022/04/11 01:29:18;;;;;;;31.13;28.53;;;3.30;91.00;;;;;;4998117;28;20474;-81
2022/04/11 01:31:44;;;;;;;22.03;20.20;;;3.20;90.40;;;;;;4998053;28;20461;-82
2022/04/11 01:34:11;;;;;;;19.47;17.63;;;3.30;89.80;;;;;;4998711;28;20454;-82
2022/04/11 01:36:38;;;;;;;16.50;14.90;;;3.40;87.90;;;;;;4998574;28;20474;-82
2022/04/11 01:39:08;;;;;;;17.90;14.47;;;3.50;87.50;;;;;;4997765;28;20473;-82
2022/04/11 01:41:35;;;;;;;18.87;16.87;;;3.40;87.60;;;;;;4998319;28;20462;-82
2022/04/11 01:44:02;;;;;;;18.53;16.63;;;3.40;87.60;;;;;;4998563;28;20450;-82
2022/04/11 01:46:28;;;;;;;20.00;18.30;;;3.50;87.70;;;;;;4999027;28;20450;-82
2022/04/11 01:48:55;;;;;;;21.20;19.30;;;3.40;88.30;;;;;;4997395;28;20462;-81
2022/04/11 01:51:22;;;;;;;22.03;20.40;;;3.40;89.00;;;;;;4999176;28;20462;-82
2022/04/11 01:53:48;;;;;;;21.30;19.30;;;3.30;89.30;;;;;;4998535;28;20947;-82
2022/04/11 01:56:16;;;;;;;17.23;15.43;;;3.30;88.90;;;;;;4998194;28;20465;-82
2022/04/11 01:58:43;;;;;;;14.73;13.43;;;3.30;87.40;;;;;;5036672;23;20496;-81
2022/04/11 02:01:10;;;;;;;14.83;12.60;;;3.20;86.10;;;;;;5014887;28;20460;-81
2022/04/11 02:03:37;;;;;;;15.93;11.80;;;3.40;85.90;;;;;;5029301;28;20453;-81
2022/04/11 02:06:04;;;;;;;16.50;12.87;;;3.20;85.40;;;;;;5034573;28;20465;-81
2022/04/11 02:08:31;;;;;;;18.63;12.00;;;3.30;86.00;;;;;;5020908;28;20473;-81
2022/04/11 02:10:57;;;;;;;18.70;14.13;;;3.20;85.80;;;;;;5014606;28;20453;-81
2022/04/11 02:13:26;;;;;;;17.33;13.70;;;3.10;86.10;;;;;;5025793;28;20456;-81
2022/04/11 02:15:52;;;;;;;20.10;18.40;;;3.10;87.40;;;;;;5034265;28;20825;-81
2022/04/11 02:18:19;;;;;;;24.37;20.60;;;3.20;87.60;;;;;;5023526;28;20465;-80
2022/04/11 02:20:46;;;;;;;28.10;25.90;;;3.00;88.60;;;;;;5014584;28;20460;-81
2022/04/11 02:23:12;;;;;;;49.23;46.33;;;3.00;90.10;;;;;;5022943;28;20453;-81
2022/04/11 02:25:40;;;;;;;61.87;58.67;;;2.90;91.80;;;;;;5034556;28;20452;-81
2022/04/11 02:28:07;;;;;;;83.50;79.80;;;2.80;92.20;;;;;;5026730;28;20481;-80
2022/04/11 02:30:35;;;;;;;74.67;70.97;;;2.70;92.60;;;;;;5014814;28;20515;-81
2022/04/11 02:33:02;;;;;;;100.43;96.03;;;2.70;92.80;;;;;;5023616;28;20448;-81
2022/04/11 02:35:29;;;;;;;113.57;108.77;;;2.50;93.40;;;;;;5034186;28;20522;-81
2022/04/11 02:37:56;;;;;;;125.27;120.03;;;2.60;94.00;;;;;;5025757;28;21005;-81
2022/04/11 02:40:23;;;;;;;152.93;146.53;;;2.50;94.20;;;;;;5013387;28;20453;-81
2022/04/11 02:42:50;;;;;;;157.97;151.43;;;2.40;94.60;;;;;;5015115;28;20458;-81
2022/04/11 02:45:17;;;;;;;165.17;158.13;;;2.50;95.20;;;;;;5014088;28;20460;-80
2022/04/11 02:47:46;;;;;;;187.70;180.30;;;2.40;95.10;;;;;;5021531;28;21024;-81
2022/04/11 02:50:12;;;;;;;188.67;180.87;;;2.40;95.40;;;;;;5033366;28;20871;-81
2022/04/11 02:52:39;;;;;;;177.00;170.03;;;2.20;95.90;;;;;;5025688;28;20480;-81
2022/04/11 02:55:07;;;;;;;128.70;123.10;;;2.40;95.40;;;;;;5014506;28;20453;-81
2022/04/11 02:57:36;;;;;;;110.33;105.93;;;2.30;94.60;;;;;;5019580;28;20476;-81
2022/04/11 03:00:05;;;;;;;107.33;102.87;;;2.40;94.10;;;;;;5031887;28;20453;-81
2022/04/11 03:02:31;;;;;;;106.47;101.77;;;2.30;94.20;;;;;;5028946;28;20483;-81
2022/04/11 03:04:59;;;;;;;126.03;120.70;;;2.30;94.20;;;;;;5014123;28;20456;-81
2022/04/11 03:07:27;;;;;;;122.87;118.00;;;2.20;94.70;;;;;;5017666;28;20475;-81
2022/04/11 03:09:54;;;;;;;121.30;115.77;;;2.20;95.00;;;;;;5032736;28;20480;-81
2022/04/11 03:12:21;;;;;;;98.77;94.57;;;2.50;94.50;;;;;;5031392;28;20548;-81
2022/04/11 03:14:49;;;;;;;74.80;71.00;;;2.40;93.80;;;;;;5014075;28;20457;-81
2022/04/11 03:17:15;;;;;;;62.07;59.10;;;2.40;93.00;;;;;;5015137;28;20468;-81
2022/04/11 03:19:42;;;;;;;51.83;49.30;;;2.50;93.00;;;;;;5013529;28;20460;-81
2022/04/11 03:22:11;;;;;;;50.40;48.00;;;2.40;92.30;;;;;;5015375;28;20468;-81
2022/04/11 03:24:37;;;;;;;52.10;49.50;;;2.40;92.30;;;;;;5033432;28;20478;-81
2022/04/11 03:27:05;;;;;;;70.30;67.00;;;2.20;92.70;;;;;;5033896;28;20453;-81
2022/04/11 03:29:31;;;;;;;77.67;74.00;;;2.20;93.40;;;;;;5015558;28;20513;-81
2022/04/11 03:31:58;;;;;;;92.50;88.20;;;2.00;93.50;;;;;;5023562;28;20954;-81
2022/04/11 03:34:25;;;;;;;135.97;129.87;;;1.90;94.10;;;;;;5014277;28;20461;-81
2022/04/11 03:36:55;;;;;;;149.27;143.17;;;1.80;94.90;;;;;;5030950;28;20821;-80
2022/04/11 03:39:23;;;;;;;153.03;146.97;;;1.80;95.30;;;;;;5037783;28;20980;-81
2022/04/11 03:41:50;;;;;;;142.40;136.63;;;1.80;95.10;;;;;;5020594;28;20461;-81
2022/04/11 03:44:16;;;;;;;134.93;129.53;;;1.90;94.90;;;;;;5018449;28;20941;-81
2022/04/11 03:46:43;;;;;;;122.17;117.20;;;1.80;94.70;;;;;;5021458;28;21021;-81
2022/04/11 03:49:10;;;;;;;112.37;107.73;;;1.90;94.50;;;;;;5015505;28;20477;-81
2022/04/11 03:51:37;;;;;;;89.30;85.57;;;1.90;94.10;;;;;;5027818;28;20460;-80
2022/04/11 03:54:04;;;;;;;80.37;76.17;;;1.90;93.70;;;;;;5016058;28;20453;-81
2022/04/11 03:56:32;;;;;;;62.57;59.40;;;2.00;93.50;;;;;;5024393;28;20455;-80
2022/04/11 03:58:58;;;;;;;59.80;56.70;;;2.00;93.10;;;;;;5026164;28;20479;-80
2022/04/11 04:01:25;;;;;;;50.33;47.30;;;2.00;92.80;;;;;;5019317;28;20464;-81
2022/04/11 04:03:52;;;;;;;41.90;39.00;;;2.00;92.30;;;;;;5022016;28;20829;-81
2022/04/11 04:06:19;;;;;;;42.53;39.83;;;1.90;92.00;;;;;;5027596;28;20459;-77
2022/04/11 04:08:46;;;;;;;36.23;34.03;;;2.00;91.90;;;;;;5032389;28;21042;-81
2022/04/11 04:11:13;;;;;;;31.47;29.50;;;1.90;92.00;;;;;;5033956;28;20448;-81
2022/04/11 04:13:41;;;;;;;30.75;28.92;;;1.70;91.70;;;;;;5024123;28;20464;-81
2022/04/11 04:16:08;;;;;;;38.50;36.60;;;1.60;92.00;;;;;;5018593;28;20202;-81
2022/04/11 04:18:34;;;;;;;43.70;40.47;;;1.70;92.50;;;;;;5028412;28;20502;-81
2022/04/11 04:21:01;;;;;;;65.03;61.90;;;1.50;92.50;;;;;;5026516;28;20449;-81
2022/04/11 04:23:28;;;;;;;64.03;61.17;;;1.50;92.90;;;;;;5018714;28;20457;-81
2022/04/11 04:25:56;;;;;;;82.53;78.50;;;1.30;92.80;;;;;;5026702;28;20445;-81
2022/04/11 04:28:23;;;;;;;117.97;111.00;;;1.30;93.50;;;;;;5035310;28;20483;-82
2022/04/11 04:30:51;;;;;;;88.30;84.50;;;1.30;93.60;;;;;;5029336;28;20480;-78
2022/04/11 04:33:18;;;;;;;84.93;81.13;;;1.00;93.30;;;;;;5022493;28;20824;-83
2022/04/11 04:35:45;;;;;;;99.40;95.30;;;0.90;93.60;;;;;;5020357;28;20456;-81
2022/04/11 04:38:12;;;;;;;149.90;144.10;;;0.70;94.50;;;;;;5021299;28;20246;-81
2022/04/11 04:40:39;;;;;;;182.13;174.93;;;0.70;95.70;;;;;;5036363;28;20475;-81
2022/04/11 04:43:06;;;;;;;231.23;221.73;;;0.70;96.80;;;;;;5039776;28;20448;-81
2022/04/11 04:45:33;;;;;;;264.50;252.80;;;0.60;98.10;;;;;;5024924;28;20823;-81
2022/04/11 04:48:01;;;;;;;266.40;254.30;;;0.60;99.30;;;;;;5021884;28;20466;-81
2022/04/11 04:50:27;;;;;;;362.50;347.07;;;0.50;99.60;;;;;;5034956;28;20452;-81
2022/04/11 04:52:54;;;;;;;364.63;349.17;;;0.70;99.90;;;;;;5040819;28;20460;-81
2022/04/11 04:55:22;;;;;;;307.53;293.90;;;1.00;99.90;;;;;;5027977;28;20449;-81
2022/04/11 04:57:49;;;;;;;308.60;294.40;;;0.90;99.90;;;;;;5019784;28;20567;-81
2022/04/11 05:00:17;;;;;;;281.43;268.10;;;0.90;99.90;;;;;;5033415;28;20480;-81
2022/04/11 05:02:43;;;;;;;268.73;256.60;;;1.00;99.90;;;;;;5035406;28;20449;-82
2022/04/11 05:05:14;;;;;;;260.37;248.80;;;0.70;99.90;;;;;;5019877;28;20965;-80
2022/04/11 05:07:41;;;;;;;270.00;256.50;;;0.70;99.90;;;;;;5025407;28;20472;-81
2022/04/11 05:10:08;;;;;;;280.03;267.67;;;0.80;99.90;;;;;;5037043;28;20495;-81
2022/04/11 05:12:42;;;;;;;294.73;281.73;;;0.70;99.90;;;;;;5015840;28;20453;-81
2022/04/11 05:15:09;;;;;;;306.93;293.17;;;0.70;99.90;;;;;;5021363;28;20456;-82
2022/04/11 05:17:36;;;;;;;299.73;286.47;;;0.60;99.90;;;;;;5029546;28;20473;-80
2022/04/11 05:20:04;;;;;;;307.37;293.30;;;0.80;99.90;;;;;;5014893;28;20481;-82
2022/04/11 05:22:32;;;;;;;341.05;325.50;;;0.70;99.90;;;;;;5014437;28;20460;-81
2022/04/11 05:24:59;;;;;;;309.20;295.20;;;0.80;99.90;;;;;;5015228;28;20221;-82
2022/04/11 05:27:25;;;;;;;283.27;270.30;;;0.80;99.90;;;;;;5015194;28;20477;-82
2022/04/11 05:29:52;;;;;;;306.70;293.30;;;0.80;99.90;;;;;;5014954;28;20456;-82
2022/04/11 05:32:19;;;;;;;295.77;282.23;;;0.80;99.90;;;;;;5015880;28;20457;-81
2022/04/11 05:34:46;;;;;;;310.70;296.90;;;1.00;99.90;;;;;;5017869;28;20218;-81
2022/04/11 05:37:12;;;;;;;270.57;258.73;;;1.10;99.90;;;;;;5017753;28;20477;-81
2022/04/11 05:39:40;;;;;;;264.40;252.00;;;1.10;99.90;;;;;;5014534;28;20480;-81
2022/04/11 05:42:08;;;;;;;285.13;272.33;;;1.20;99.90;;;;;;5013397;28;20457;-81
2022/04/11 05:44:35;;;;;;;264.90;252.80;;;1.30;99.90;;;;;;5014057;28;20461;-81
2022/04/11 05:47:02;;;;;;;272.73;260.63;;;1.40;99.90;;;;;;5014922;28;20461;-81
2022/04/11 05:49:28;;;;;;;255.83;243.43;;;1.60;99.90;;;;;;5011879;28;20464;-82
2022/04/11 05:51:55;;;;;;;247.30;236.23;;;1.70;99.90;;;;;;5014228;28;20460;-80
2022/04/11 05:54:22;;;;;;;243.80;233.03;;;1.70;99.90;;;;;;5013082;28;20453;-82
2022/04/11 05:56:50;;;;;;;252.33;241.07;;;1.90;99.90;;;;;;5016073;28;20457;-81
2022/04/11 05:59:16;;;;;;;300.50;286.40;;;2.10;99.90;;;;;;5019560;28;20485;-82
2022/04/11 06:01:43;;;;;;;375.20;358.00;;;2.20;99.90;;;;;;5018031;28;20460;-81
2022/04/11 06:04:10;;;;;;;321.33;306.37;;;2.30;99.90;;;;;;5019716;28;20966;-81
2022/04/11 06:06:37;;;;;;;278.73;265.80;;;2.50;99.90;;;;;;5018780;28;20461;-82
2022/04/11 06:09:04;;;;;;;214.50;204.83;;;2.80;99.90;;;;;;5017871;28;20512;-81
2022/04/11 06:11:31;;;;;;;156.07;149.77;;;2.90;98.40;;;;;;5018045;28;20449;-81
2022/04/11 06:13:59;;;;;;;97.93;92.93;;;3.10;96.00;;;;;;5023681;28;20448;-81
2022/04/11 06:16:25;;;;;;;57.30;53.87;;;3.40;93.60;;;;;;5030506;28;20799;-81
2022/04/11 06:18:52;;;;;;;57.30;53.40;;;3.50;92.20;;;;;;5029929;28;20483;-81
2022/04/11 06:21:19;;;;;;;141.97;79.27;;;3.70;91.70;;;;;;5030611;28;20472;-81
2022/04/11 06:23:46;;;;;;;24.53;21.77;;;3.90;88.90;;;;;;5031879;28;20457;-81
2022/04/11 06:26:12;;;;;;;18.10;16.43;;;4.10;89.20;;;;;;5025795;28;20449;-81
2022/04/11 06:28:41;;;;;;;18.13;12.93;;;4.30;86.50;;;;;;5024340;28;20490;-81
2022/04/11 06:31:09;;;;;;;22.57;17.10;;;4.40;84.10;;;;;;5031221;28;20452;-82
2022/04/11 06:33:37;;;;;;;23.57;17.57;;;4.50;81.70;;;;;;5032332;28;20453;-82
2022/04/11 06:36:04;;;;;;;36.57;29.10;;;4.70;81.40;;;;;;5020747;28;20454;-81
2022/04/11 06:38:31;;;;;;;51.37;29.17;;;4.80;79.40;;;;;;5022507;28;20456;-81
2022/04/11 06:40:57;;;;;;;49.43;26.63;;;5.00;78.00;;;;;;5030707;28;20477;-81
2022/04/11 06:43:24;;;;;;;39.23;23.50;;;5.00;74.20;;;;;;5015323;28;21153;-84
2022/04/11 06:45:51;;;;;;;30.90;20.33;;;5.10;75.30;;;;;;5018805;28;20458;-81
2022/04/11 06:48:19;;;;;;;44.70;26.13;;;5.20;76.30;;;;;;5023604;28;20480;-80
2022/04/11 06:50:46;;;;;;;21.70;16.97;;;5.30;78.20;;;;;;5019300;28;20977;-80
2022/04/11 06:53:15;;;;;;;13.63;9.90;;;5.40;76.10;;;;;;5024216;28;20453;-81
2022/04/11 06:55:43;;;;;;;11.60;8.00;;;5.60;71.40;;;;;;5025122;28;20520;-81
2022/04/11 06:58:10;;;;;;;14.23;7.93;;;5.80;71.60;;;;;;5032112;28;20943;-80
2022/04/11 07:00:36;;;;;;;11.70;6.93;;;5.80;69.90;;;;;;5032067;28;20491;-81
2022/04/11 07:03:03;;;;;;;12.30;6.90;;;6.00;71.50;;;;;;5032615;28;20842;-81
2022/04/11 07:05:31;;;;;;;15.63;11.27;;;6.10;68.60;;;;;;5032171;28;20452;-81
2022/04/11 07:07:58;;;;;;;19.60;11.40;;;6.20;67.60;;;;;;5018408;28;20477;-81
2022/04/11 07:10:25;;;;;;;15.03;10.43;;;6.40;65.80;;;;;;5009409;28;20535;-80
2022/04/11 07:12:52;;;;;;;8.87;6.53;;;6.50;65.80;;;;;;5011963;28;20449;-81
2022/04/11 07:15:18;;;;;;;9.60;7.10;;;6.70;65.40;;;;;;5012064;28;20555;-80
2022/04/11 07:17:45;;;;;;;8.53;5.60;;;6.80;65.30;;;;;;5012139;28;20555;-81
2022/04/11 07:20:13;;;;;;;9.40;5.53;;;6.80;61.50;;;;;;5013034;28;20829;-81
2022/04/11 07:22:42;;;;;;;10.73;5.97;;;6.80;59.00;;;;;;5028355;28;20474;-81
2022/04/11 07:25:09;;;;;;;8.93;5.80;;;7.00;59.40;;;;;;5014114;28;20832;-81
2022/04/11 07:27:36;;;;;;;10.30;5.83;;;7.20;57.70;;;;;;5015649;28;20472;-83
2022/04/11 07:30:03;;;;;;;12.73;6.37;;;7.20;57.80;;;;;;5011917;28;20445;-81
2022/04/11 07:32:30;;;;;;;24.83;15.93;;;7.40;59.70;;;;;;5018273;28;20451;-80
2022/04/11 07:34:58;;;;;;;19.60;12.30;;;7.50;59.80;;;;;;5031215;28;20459;-82
2022/04/11 07:37:25;;;;;;;12.47;9.20;;;7.70;58.80;;;;;;5018265;28;20469;-82
2022/04/11 07:39:53;;;;;;;15.00;12.07;;;7.80;55.60;;;;;;5021738;28;20479;-82
2022/04/11 07:42:21;;;;;;;16.13;12.03;;;7.80;54.20;;;;;;5033886;28;20452;-82
2022/04/11 07:44:47;;;;;;;11.53;8.40;;;8.00;51.80;;;;;;5032527;28;20953;-81
2022/04/11 07:47:14;;;;;;;9.90;6.13;;;8.10;54.80;;;;;;5034746;28;20486;-81
2022/04/11 07:49:41;;;;;;;8.00;6.00;;;8.10;50.70;;;;;;5033556;28;20460;-81
2022/04/11 07:52:09;;;;;;;14.90;5.87;;;8.40;54.50;;;;;;5035649;28;20933;-82
2022/04/11 07:54:35;;;;;;;9.30;5.67;;;8.50;52.30;;;;;;5035727;28;20448;-83
2022/04/11 07:57:04;;;;;;;15.87;8.13;;;8.70;49.10;;;;;;5035710;28;20460;-82
2022/04/11 07:59:31;;;;;;;15.10;5.90;;;8.90;48.30;;;;;;5027477;23;20493;-84
2022/04/11 08:01:57;;;;;;;18.87;6.20;;;9.30;45.80;;;;;;5000015;28;20450;-85
2022/04/11 08:04:24;;;;;;;8.90;5.93;;;9.60;45.60;;;;;;4998847;28;20969;-84
2022/04/11 08:06:51;;;;;;;11.33;6.10;;;9.90;42.10;;;;;;5000440;28;20453;-83
2022/04/11 08:09:18;;;;;;;9.77;5.43;;;10.20;39.60;;;;;;4998350;28;20485;-84
2022/04/11 08:11:45;;;;;;;8.83;5.40;;;10.50;35.50;;;;;;4998192;28;20449;-84
2022/04/11 08:14:13;;;;;;;10.50;5.10;;;10.80;36.80;;;;;;4997776;28;20460;-84
2022/04/11 08:16:40;;;;;;;13.90;4.97;;;11.00;32.50;;;;;;4999574;28;20465;-83
2022/04/11 08:19:07;;;;;;;8.53;5.27;;;11.10;35.40;;;;;;4999114;28;20478;-85
2022/04/11 08:21:33;;;;;;;10.30;5.80;;;11.40;32.40;;;;;;4999902;28;20860;-82
2022/04/11 08:24:00;;;;;;;14.33;5.97;;;11.50;30.90;;;;;;4999377;28;20461;-81
2022/04/11 08:26:27;;;;;;;9.50;5.53;;;11.90;29.30;;;;;;5000285;28;20461;-84
2022/04/11 08:28:53;;;;;;;9.20;4.90;;;11.70;30.30;;;;;;4999698;28;20481;-84
2022/04/11 08:31:22;;;;;;;13.70;5.20;;;11.70;28.20;;;;;;4999057;28;20489;-83
2022/04/11 08:33:48;;;;;;;12.87;5.87;;;12.20;28.50;;;;;;4999106;28;20450;-84
2022/04/11 08:36:15;;;;;;;12.47;5.20;;;12.40;28.70;;;;;;5000324;28;20462;-84
2022/04/11 08:38:42;;;;;;;8.30;4.83;;;12.60;26.40;;;;;;4997729;28;20481;-84
2022/04/11 08:41:14;;;;;;;12.27;5.03;;;12.70;25.90;;;;;;4999083;28;20992;-84
2022/04/11 08:43:42;;;;;;;9.97;5.03;;;12.80;25.00;;;;;;4997997;28;20841;-84
2022/04/11 08:46:08;;;;;;;9.70;4.13;;;13.10;22.10;;;;;;4998244;28;20462;-84
2022/04/11 08:48:37;;;;;;;10.23;4.90;;;13.30;21.60;;;;;;4997314;28;20483;-84
2022/04/11 08:51:04;;;;;;;13.43;4.80;;;13.30;21.50;;;;;;4998254;28;20482;-84
2022/04/11 08:53:32;;;;;;;8.97;4.83;;;13.60;21.10;;;;;;4998983;28;20461;-83
2022/04/11 08:55:59;;;;;;;13.23;5.60;;;13.80;21.40;;;;;;4997818;28;20462;-84
2022/04/11 08:58:26;;;;;;;49.93;10.27;;;13.80;18.40;;;;;;4998098;28;20482;-85
2022/04/11 09:00:52;;;;;;;14.07;5.07;;;14.10;18.90;;;;;;4997561;28;20481;-83
2022/04/11 09:03:19;;;;;;;7.67;4.37;;;14.00;15.40;;;;;;4996651;28;20455;-84
2022/04/11 09:06:03;;;;;;;13.00;4.10;;;14.00;15.40;;;;;;4996835;28;20476;-84
2022/04/11 09:08:38;;;;;;;9.03;4.50;;;14.20;14.60;;;;;;4993769;28;20483;-84
2022/04/11 09:11:05;;;;;;;12.83;4.30;;;14.30;13.50;;;;;;4998631;28;20489;-83
2022/04/11 09:13:47;;;;;;;7.77;4.63;;;14.50;15.80;;;;;;4998580;28;20453;-85
2022/04/11 09:16:14;;;;;;;8.30;4.23;;;14.60;15.80;;;;;;5000850;28;20460;-85
2022/04/11 09:18:47;;;;;;;7.20;3.53;;;14.90;12.50;;;;;;4997309;28;20863;-83
2022/04/11 09:21:17;;;;;;;9.17;3.87;;;15.00;11.10;;;;;;4999158;28;20457;-84
2022/04/11 09:23:44;;;;;;;7.67;4.10;;;15.10;11.70;;;;;;4998063;28;20464;-83
2022/04/11 09:26:19;;;;;;;8.00;3.60;;;15.40;12.50;;;;;;4998498;28;20492;-84
2022/04/11 09:28:58;;;;;;;8.30;4.03;;;15.50;10.50;;;;;;4997103;28;20902;-84
2022/04/11 09:31:25;;;;;;;9.43;4.13;;;15.40;6.60;;;;;;4997281;28;20473;-84
2022/04/11 09:33:52;;;;;;;7.83;3.63;;;15.40;6.20;;;;;;4997207;28;20552;-83
2022/04/11 09:36:21;;;;;;;5.80;3.40;;;15.40;8.50;;;;;;4999605;28;20955;-85
2022/04/11 09:38:58;;;;;;;21.00;3.50;;;15.30;4.70;;;;;;4998517;28;20500;-84
2022/04/11 09:41:28;;;;;;;9.00;3.20;;;15.60;7.70;;;;;;4996976;28;20458;-85
2022/04/11 09:43:55;;;;;;;7.73;2.90;;;15.80;5.90;;;;;;4996691;28;20915;-84
2022/04/11 09:46:22;;;;;;;7.03;3.17;;;15.80;2.00;;;;;;4995966;28;20457;-85
2022/04/11 09:48:52;;;;;;;8.13;3.47;;;16.20;4.10;;;;;;4994564;28;20463;-84
2022/04/11 09:51:20;;;;;;;7.30;3.10;;;16.30;1.90;;;;;;4995998;28;20223;-84
2022/04/11 09:53:46;;;;;;;11.53;3.90;;;16.30;1.00;;;;;;4993542;28;20555;-84
2022/04/11 09:56:14;;;;;;;8.83;3.40;;;16.50;1.00;;;;;;4994931;28;20447;-84
2022/04/11 09:58:43;;;;;;;8.27;2.70;;;16.80;2.30;;;;;;4994680;28;20496;-85
2022/04/11 10:01:10;;;;;;;10.43;3.70;;;16.10;1.00;;;;;;4995169;28;20451;-84
2022/04/11 10:03:37;;;;;;;7.93;3.07;;;16.50;1.00;;;;;;4995966;28;20774;-84
2022/04/11 10:06:05;;;;;;;12.67;6.17;;;16.30;1.00;;;;;;4994858;28;20464;-84
2022/04/11 10:08:33;;;;;;;10.13;4.40;;;16.40;1.00;;;;;;4994271;28;20853;-85
2022/04/11 10:11:01;;;;;;;9.07;5.70;;;16.30;1.00;;;;;;4995883;28;20483;-84
2022/04/11 10:13:29;;;;;;;8.37;3.27;;;16.70;1.00;;;;;;4995428;28;20462;-84
2022/04/11 10:15:55;;;;;;;7.93;2.87;;;16.70;1.00;;;;;;4996059;28;20836;-84
2022/04/11 10:18:25;;;;;;;8.30;3.67;;;16.30;1.00;;;;;;4994367;28;20480;-85
2022/04/11 10:20:56;;;;;;;7.30;3.13;;;16.40;1.00;;;;;;4995576;28;20544;-85
2022/04/11 10:23:30;;;;;;;6.97;3.00;;;16.30;1.00;;;;;;4994975;28;20954;-84
2022/04/11 10:26:00;;;;;;;6.37;3.10;;;17.00;1.00;;;;;;4995311;28;20467;-85
2022/04/11 10:28:28;;;;;;;9.50;3.20;;;17.10;1.00;;;;;;4993939;28;20578;-84
2022/04/11 10:31:09;;;;;;;8.20;4.00;;;17.00;1.00;;;;;;4994966;28;20478;-84
2022/04/11 10:33:47;;;;;;;18.03;7.60;;;17.60;1.00;;;;;;4996591;28;20530;-84
2022/04/11 10:36:41;;;;;;;13.80;10.40;;;18.00;1.00;;;;;;4994396;28;20460;-85
2022/04/11 10:39:26;;;;;;;18.30;4.37;;;17.80;1.00;;;;;;4959305;28;20850;-84
2022/04/11 10:42:14;;;;;;;8.27;3.53;;;17.40;1.00;;;;;;4995718;28;20535;-84
2022/04/11 10:44:43;;;;;;;9.17;3.87;;;18.40;1.00;;;;;;4994521;28;20457;-84
2022/04/11 10:47:26;;;;;;;7.13;3.37;;;18.50;1.00;;;;;;4994201;28;20446;-84
2022/04/11 10:50:22;;;;;;;7.17;3.37;;;18.50;1.00;;;;;;4993380;28;21012;-84
2022/04/11 10:52:54;;;;;;;7.77;4.00;;;18.60;1.00;;;;;;4992654;28;20481;-84
2022/04/11 10:55:23;;;;;;;7.00;3.20;;;18.50;1.00;;;;;;4994035;28;20454;-85
2022/04/11 10:57:53;;;;;;;9.80;3.57;;;18.60;1.00;;;;;;4994249;28;20496;-85
2022/04/11 11:00:22;;;;;;;10.30;4.63;;;18.80;1.00;;;;;;4993622;28;20518;-85
2022/04/11 11:03:10;;;;;;;8.60;3.30;;;18.20;1.00;;;;;;4995247;28;20461;-85
2022/04/11 11:05:39;;;;;;;9.60;4.07;;;18.00;1.00;;;;;;4995239;28;20461;-84
2022/04/11 11:08:28;;;;;;;16.43;11.10;;;18.10;1.00;;;;;;4994790;28;20473;-84
2022/04/11 11:10:56;;;;;;;11.60;6.73;;;18.40;1.00;;;;;;4994404;28;20479;-84
2022/04/11 11:13:39;;;;;;;28.80;20.83;;;18.80;1.00;;;;;;4994848;28;20464;-84
2022/04/11 11:16:41;;;;;;;74.27;55.97;;;19.10;1.00;;;;;;4994628;28;20885;-84
2022/04/11 11:19:17;;;;;;;19.83;13.73;;;19.60;1.00;;;;;;4993214;28;20484;-84
2022/04/11 11:22:05;;;;;;;27.67;24.73;;;19.80;1.00;;;;;;4995800;28;20444;-84
2022/04/11 11:24:32;;;;;;;8.00;3.90;;;19.80;1.00;;;;;;4998609;28;20451;-84
2022/04/11 11:27:03;;;;;;;9.60;3.70;;;19.90;1.00;;;;;;4998986;28;20446;-84
2022/04/11 11:29:33;;;;;;;7.67;3.10;;;20.30;1.00;;;;;;4997593;28;20997;-84
2022/04/11 11:32:02;;;;;;;8.13;3.10;;;19.80;1.00;;;;;;4997655;28;20479;-84
2022/04/11 11:34:29;;;;;;;7.30;3.27;;;20.30;1.00;;;;;;4998155;28;20460;-84
2022/04/11 11:37:04;;;;;;;5.60;2.57;;;20.20;1.00;;;;;;4998167;28;20459;-84
2022/04/11 11:39:33;;;;;;;7.57;3.10;;;20.40;1.00;;;;;;4996432;28;20479;-84
2022/04/11 11:42:03;;;;;;;7.80;3.50;;;20.20;1.00;;;;;;4997443;28;20485;-84
2022/04/11 11:44:32;;;;;;;9.00;3.00;;;19.90;1.00;;;;;;5002894;28;20455;-85
2022/04/11 11:47:00;;;;;;;6.20;3.27;;;19.80;1.00;;;;;;4998823;28;20453;-85
2022/04/11 11:49:28;;;;;;;6.50;3.20;;;19.90;1.00;;;;;;4996728;28;20491;-84
2022/04/11 11:51:55;;;;;;;10.70;3.07;;;20.10;1.00;;;;;;4996109;28;20487;-85
2022/04/11 11:54:35;;;;;;;7.30;3.30;;;20.50;1.00;;;;;;4997743;28;20496;-84
2022/04/11 11:57:02;;;;;;;6.67;3.07;;;20.30;1.00;;;;;;4997494;28;20451;-85
2022/04/11 11:59:31;;;;;;;7.37;3.30;;;20.50;1.00;;;;;;4997070;28;20495;-84
2022/04/11 12:04:42;;;;;;;8.93;3.47;;;20.50;1.00;;;;;;4997866;28;20490;-84
2022/04/11 12:07:09;;;;;;;7.60;3.60;;;20.30;1.00;;;;;;4997767;28;20463;-85
2022/04/11 12:09:37;;;;;;;7.13;3.10;;;20.20;1.00;;;;;;4996395;28;20480;-84
2022/04/11 12:12:05;;;;;;;8.63;3.40;;;20.40;1.00;;;;;;4997014;28;20522;-85
2022/04/11 12:15:05;;;;;;;9.20;3.23;;;20.80;1.00;;;;;;4999135;28;20224;-82
2022/04/11 12:17:35;;;;;;;7.80;3.43;;;20.70;1.00;;;;;;4997266;28;20458;-85
2022/04/11 12:20:10;;;;;;;7.80;3.23;;;20.50;1.00;;;;;;4996845;28;20456;-85
2022/04/11 12:22:37;;;;;;;6.90;2.90;;;21.00;1.00;;;;;;4998725;28;20481;-84
2022/04/11 12:25:27;;;;;;;11.00;3.13;;;21.10;1.00;;;;;;4996601;28;20473;-85
2022/04/11 12:28:09;;;;;;;26.90;19.17;;;21.10;1.00;;;;;;4997392;28;20861;-85
2022/04/11 12:30:36;;;;;;;8.13;3.90;;;21.30;1.00;;;;;;4997995;28;20457;-85
2022/04/11 12:33:04;;;;;;;7.33;3.80;;;21.50;1.00;;;;;;4996223;28;20449;-85
2022/04/11 12:35:31;;;;;;;15.90;11.93;;;21.20;1.00;;;;;;4999710;28;20454;-85
2022/04/11 12:38:00;;;;;;;21.13;15.90;;;21.70;1.00;;;;;;5000514;28;20465;-85
2022/04/11 12:40:42;;;;;;;8.53;3.80;;;21.70;1.00;;;;;;4999411;28;20445;-85
2022/04/11 12:43:08;;;;;;;7.40;4.50;;;21.00;1.00;;;;;;4999247;28;20480;-86
2022/04/11 12:45:35;;;;;;;8.63;3.83;;;21.20;1.00;;;;;;4997933;28;20465;-84
2022/04/11 12:48:05;;;;;;;11.33;3.87;;;21.80;1.00;;;;;;4997937;28;20486;-85